sensor_id;sensor_type;location;lat;lon;timestamp;temperature;humidity
50690;DHT22;71367;48.298;11.238;2023-11-18T00:10:00;4.00;99.90
50690;DHT22;71367;48.298;11.238;2023-11-18T00:25:07;3.90;99.90
50690;DHT22;71367;48.298;11.238;2023-11-18T00:40:11;3.80;99.90
50690;DHT22;71367;48.298;11.238;2023-11-18T00:55:15;3.80;99.90
50690;DHT22;71367;48.298;11.238;2023-11-18T01:10:20;3.70;99.90
50690;DHT22;71367;48.298;11.238;2023-11-18T01:25:23;3.70;99.90
50690;DHT22;71367;48.298;11.238;2023-11-18T01:40:27;3.70;99.90
50690;DHT22;71367;48.298;11.238;2023-11-18T01:55:33;3.60;99.90
50690;DHT22;71367;48.298;11.238;2023-11-18T02:26:22;3.50;99.90
50690;DHT22;71367;48.298;11.238;2023-11-18T02:41:26;3.60;99.90
50690;DHT22;71367;48.298;11.238;2023-11-18T02:56:31;3.60;99.90
50690;DHT22;71367;48.298;11.238;2023-11-18T03:11:35;3.70;99.90
50690;DHT22;71367;48.298;11.238;2023-11-18T03:26:38;3.70;99.90
50690;DHT22;71367;48.298;11.238;2023-11-18T03:41:41;3.70;99.90
50690;DHT22;71367;48.298;11.238;2023-11-18T03:56:46;3.70;99.90
50690;DHT22;71367;48.298;11.238;2023-11-18T04:11:50;3.80;99.90
50690;DHT22;71367;48.298;11.238;2023-11-18T04:26:54;3.80;99.90
50690;DHT22;71367;48.298;11.238;2023-11-18T04:41:58;3.90;99.90
50690;DHT22;71367;48.298;11.238;2023-11-18T04:57:01;3.90;99.90
50690;DHT22;71367;48.298;11.238;2023-11-18T05:12:06;3.90;99.90
50690;DHT22;71367;48.298;11.238;2023-11-18T05:27:11;3.90;99.90
50690;DHT22;71367;48.298;11.238;2023-11-18T05:42:14;3.90;99.90
50690;DHT22;71367;48.298;11.238;2023-11-18T05:57:18;3.90;99.90
50690;DHT22;71367;48.298;11.238;2023-11-18T06:12:21;3.80;99.90
50690;DHT22;71367;48.298;11.238;2023-11-18T06:27:25;3.80;99.90
50690;DHT22;71367;48.298;11.238;2023-11-18T06:42:29;3.90;99.90
50690;DHT22;71367;48.298;11.238;2023-11-18T06:57:32;3.90;99.90
50690;DHT22;71367;48.298;11.238;2023-11-18T07:12:36;3.90;99.90
50690;DHT22;71367;48.298;11.238;2023-11-18T07:27:40;3.90;99.90
50690;DHT22;71367;48.298;11.238;2023-11-18T07:42:44;4.10;99.90
50690;DHT22;71367;48.298;11.238;2023-11-18T07:57:47;4.30;99.90
50690;DHT22;71367;48.298;11.238;2023-11-18T08:12:51;4.40;99.90
50690;DHT22;71367;48.298;11.238;2023-11-18T08:27:57;4.50;99.90
50690;DHT22;71367;48.298;11.238;2023-11-18T08:43:00;4.70;99.90
50690;DHT22;71367;48.298;11.238;2023-11-18T08:58:08;5.10;99.90
50690;DHT22;71367;48.298;11.238;2023-11-18T09:13:23;5.40;99.90
50690;DHT22;71367;48.298;11.238;2023-11-18T09:28:30;5.50;99.90
50690;DHT22;71367;48.298;11.238;2023-11-18T09:43:34;6.00;99.90
50690;DHT22;71367;48.298;11.238;2023-11-18T09:58:49;6.40;99.90
50690;DHT22;71367;48.298;11.238;2023-11-18T10:13:57;6.60;99.90
50690;DHT22;71367;48.298;11.238;2023-11-18T10:29:04;7.20;99.90
50690;DHT22;71367;48.298;11.238;2023-11-18T10:44:10;7.40;99.90
50690;DHT22;71367;48.298;11.238;2023-11-18T10:59:17;7.70;99.90
50690;DHT22;71367;48.298;11.238;2023-11-18T11:14:21;8.00;99.90
50690;DHT22;71367;48.298;11.238;2023-11-18T11:29:32;7.90;99.90
50690;DHT22;71367;48.298;11.238;2023-11-18T11:44:40;8.30;99.90
50690;DHT22;71367;48.298;11.238;2023-11-18T11:59:56;8.40;99.90
50690;DHT22;71367;48.298;11.238;2023-11-18T12:15:00;8.20;99.90
50690;DHT22;71367;48.298;11.238;2023-11-18T12:30:41;8.10;99.90
50690;DHT22;71367;48.298;11.238;2023-11-18T12:46:20;8.10;99.90
50690;DHT22;71367;48.298;11.238;2023-11-18T13:01:30;8.70;99.90
50690;DHT22;71367;48.298;11.238;2023-11-18T13:16:36;8.70;99.90
50690;DHT22;71367;48.298;11.238;2023-11-18T13:31:39;8.80;99.90
50690;DHT22;71367;48.298;11.238;2023-11-18T13:46:43;8.70;99.90
50690;DHT22;71367;48.298;11.238;2023-11-18T14:01:46;8.70;99.90
50690;DHT22;71367;48.298;11.238;2023-11-18T14:16:50;8.80;99.90
50690;DHT22;71367;48.298;11.238;2023-11-18T14:31:55;8.80;99.90
50690;DHT22;71367;48.298;11.238;2023-11-18T14:46:58;8.60;99.90
50690;DHT22;71367;48.298;11.238;2023-11-18T15:02:02;8.20;99.90
50690;DHT22;71367;48.298;11.238;2023-11-18T15:17:05;7.80;99.90
50690;DHT22;71367;48.298;11.238;2023-11-18T15:32:09;7.30;99.90
50690;DHT22;71367;48.298;11.238;2023-11-18T15:47:13;7.00;99.90
50690;DHT22;71367;48.298;11.238;2023-11-18T16:02:17;6.70;99.90
50690;DHT22;71367;48.298;11.238;2023-11-18T16:17:20;6.40;99.90
50690;DHT22;71367;48.298;11.238;2023-11-18T16:32:24;6.20;99.90
50690;DHT22;71367;48.298;11.238;2023-11-18T16:47:27;6.00;99.90
50690;DHT22;71367;48.298;11.238;2023-11-18T17:02:30;5.90;99.90
50690;DHT22;71367;48.298;11.238;2023-11-18T17:17:34;5.90;99.90
50690;DHT22;71367;48.298;11.238;2023-11-18T17:32:38;5.90;99.90
50690;DHT22;71367;48.298;11.238;2023-11-18T17:47:43;5.80;99.90
50690;DHT22;71367;48.298;11.238;2023-11-18T18:02:47;5.60;99.90
50690;DHT22;71367;48.298;11.238;2023-11-18T18:17:50;5.60;99.90
50690;DHT22;71367;48.298;11.238;2023-11-18T18:32:54;5.60;99.90
50690;DHT22;71367;48.298;11.238;2023-11-18T18:47:57;5.50;99.90
50690;DHT22;71367;48.298;11.238;2023-11-18T19:03:01;5.40;99.90
50690;DHT22;71367;48.298;11.238;2023-11-18T19:18:04;5.40;99.90
50690;DHT22;71367;48.298;11.238;2023-11-18T19:33:09;5.30;99.90
50690;DHT22;71367;48.298;11.238;2023-11-18T19:48:15;5.20;99.90
50690;DHT22;71367;48.298;11.238;2023-11-18T20:03:20;5.20;99.90
50690;DHT22;71367;48.298;11.238;2023-11-18T20:18:25;5.10;99.90
50690;DHT22;71367;48.298;11.238;2023-11-18T20:33:32;5.00;99.90
50690;DHT22;71367;48.298;11.238;2023-11-18T20:48:39;4.70;99.90
50690;DHT22;71367;48.298;11.238;2023-11-18T21:03:43;4.60;99.90
50690;DHT22;71367;48.298;11.238;2023-11-18T21:18:51;4.50;99.90
50690;DHT22;71367;48.298;11.238;2023-11-18T21:33:56;4.40;99.90
50690;DHT22;71367;48.298;11.238;2023-11-18T21:49:01;4.40;99.90
50690;DHT22;71367;48.298;11.238;2023-11-18T22:04:05;4.40;99.90
50690;DHT22;71367;48.298;11.238;2023-11-18T22:19:10;4.50;99.90
50690;DHT22;71367;48.298;11.238;2023-11-18T22:34:19;4.60;99.90
50690;DHT22;71367;48.298;11.238;2023-11-18T22:49:23;4.70;99.90
50690;DHT22;71367;48.298;11.238;2023-11-18T23:04:28;4.70;99.90
50690;DHT22;71367;48.298;11.238;2023-11-18T23:19:33;4.70;99.90
50690;DHT22;71367;48.298;11.238;2023-11-18T23:34:47;4.80;99.90
50690;DHT22;71367;48.298;11.238;2023-11-18T23:49:51;4.90;99.90
